Kezdőlap
METAR-TAF:

METAR-TAF

Repülőterek :

Breszt, Fehéroroszország

földrajzi szélesség: 52-06-30N, földrajzi hosszúság: 023-53-48E, magasság: 143 m

Jelenlegi meteorológiai megfigyelések

A jelentés 43 perccel ezelõtt készült, 04:00 UTC
Szélcsend
Hőmérséklet 13°C
Páratartalom 94%
Légköri nyomás 1015 hPa
Látótávolság: 7000 m

METAR: UMBB 150400Z 00000MPS 7000 NSC 13/12 Q1015 NOSIG

Idő: 07:43 (04:43 UTC)

Előrejelzés

A jelentés 14 órával és 35 perccel ezelõtt készült, 14:08 UTC
Az előrejelzés 14-én 15 óra UTC és 14-én 24 óra UTC között érvényes
Északnyugati szél 6 kt
Látótávolság 10 km, vagy több
Szakadozott felhőzet 2000 lábon
14-én 15 óra UTC és 14-én 18 óra UTC között ideiglenes
Észak-északnyugati szél 8 kt
14-én 18 óra UTC és 14-én 24 óra UTC között ideiglenes
Látótávolság: 3000 m
Párásság,

TAF: UMBB 141408Z 1415/1424 31003MPS 9999 BKN020 TEMPO 1415/1418 33004MPS TEMPO 1418/1424 3000 BR

Meteorológiai megfigyelések és előrejelzések több, mint 4000 repülőtéren (METAR és TAF jelentéseket).

A térképen piros és sárga pontok jelzik az elérhető meteorológiai állomásokat.

Mozgassa az egeret a pont fölött, hogy megjelenjen az állomás neve.

Azután kattintson az időjárási megfigyelések és előrejelzések megtekintéséhez.

A térkép megváltoztatása: kattintson a fekete keresztel jelölt zöld gombra ráközelítéshez, a vonallal jelölt zöld gombra távolításhoz, vagy a zöld nyilakra a szomszédos térképek eléréséhez.


METAR-TAF: